createdAt,value
2023-02-03T00:01:42.136Z,99.97
2023-02-03T00:04:09.113Z,94.40
2023-02-03T00:06:36.363Z,97.40
2023-02-03T00:09:04.540Z,99.28
2023-02-03T00:11:32.208Z,102.30
2023-02-03T00:13:59.346Z,101.13
2023-02-03T00:16:26.393Z,105.13
2023-02-03T00:18:53.363Z,96.53
2023-02-03T00:21:20.896Z,112.78
2023-02-03T00:23:47.892Z,112.47
2023-02-03T00:26:16.859Z,109.70
2023-02-03T00:28:44.444Z,106.20
2023-02-03T00:31:18.559Z,103.15
2023-02-03T00:33:45.655Z,109.43
2023-02-03T00:36:13.109Z,110.07
2023-02-03T00:38:40.566Z,109.07
2023-02-03T00:41:07.713Z,110.85
2023-02-03T00:43:34.815Z,105.07
2023-02-03T00:46:04.299Z,100.57
2023-02-03T00:48:31.369Z,100.53
2023-02-03T00:50:58.560Z,100.63
2023-02-03T00:53:25.557Z,106.57
2023-02-03T00:55:52.656Z,102.75
2023-02-03T00:58:19.650Z,93.78
2023-02-03T01:00:46.771Z,93.03
2023-02-03T01:03:28.898Z,93.40
2023-02-03T01:05:55.897Z,105.20
2023-02-03T01:08:23.862Z,108.90
2023-02-03T01:10:50.967Z,106.10
2023-02-03T01:13:18.007Z,103.00
2023-02-03T01:15:49.101Z,100.70
2023-02-03T01:18:16.244Z,109.03
2023-02-03T01:20:43.190Z,104.93
2023-02-03T01:23:10.187Z,109.25
2023-02-03T01:25:37.284Z,107.03
2023-02-03T01:28:06.214Z,107.32
2023-02-03T01:30:33.588Z,111.47
2023-02-03T01:33:00.769Z,106.43
2023-02-03T01:35:27.982Z,111.28
2023-02-03T01:37:54.975Z,108.70
2023-02-03T01:40:22.006Z,111.97
2023-02-03T01:42:49.017Z,107.82
2023-02-03T01:45:19.290Z,110.13
2023-02-03T01:47:48.954Z,103.10
2023-02-03T01:50:27.995Z,105.40
2023-02-03T01:53:00.813Z,99.03
2023-02-03T01:55:35.028Z,111.43
2023-02-03T01:58:13.181Z,99.22
2023-02-03T02:00:40.479Z,93.93
2023-02-03T02:03:09.323Z,101.07
2023-02-03T02:05:49.520Z,98.85
2023-02-03T02:08:19.846Z,98.30
2023-02-03T02:10:47.208Z,93.18
2023-02-03T02:13:15.683Z,93.30
2023-02-03T02:16:07.097Z,89.97
2023-02-03T02:18:52.316Z,82.10
2023-02-03T02:21:50.345Z,90.78
2023-02-03T02:24:23.236Z,91.50
2023-02-03T02:26:57.189Z,95.18
2023-02-03T02:30:01.303Z,89.13
2023-02-03T02:32:31.529Z,89.72
2023-02-03T02:35:10.601Z,86.78
2023-02-03T02:38:25.160Z,92.68
2023-02-03T02:41:05.526Z,90.28
2023-02-03T02:43:46.193Z,86.55
2023-02-03T02:46:32.676Z,97.43
2023-02-03T02:49:06.188Z,85.50
2023-02-03T02:51:34.465Z,93.55
2023-02-03T02:54:06.120Z,99.10
2023-02-03T02:56:36.543Z,102.60
2023-02-03T02:59:05.787Z,95.45
2023-02-03T03:01:33.649Z,103.50
2023-02-03T03:04:05.315Z,97.93
2023-02-03T03:06:53.755Z,100.40
2023-02-03T03:09:38.574Z,99.00
2023-02-03T03:12:29.479Z,101.87
2023-02-03T03:15:07.788Z,100.35
2023-02-03T03:17:41.796Z,100.03
2023-02-03T03:20:19.904Z,102.15
2023-02-03T03:22:51.611Z,96.18
2023-02-03T03:25:24.747Z,104.57
2023-02-03T03:28:06.604Z,102.43
2023-02-03T03:30:36.597Z,95.85
2023-02-03T03:33:05.856Z,101.50
2023-02-03T03:35:50.624Z,99.32
2023-02-03T03:38:33.897Z,100.97
2023-02-03T03:41:15.436Z,105.25
2023-02-03T03:43:45.245Z,107.20
2023-02-03T03:46:17.566Z,104.38
2023-02-03T03:48:55.621Z,102.07
2023-02-03T03:51:30.445Z,106.00
2023-02-03T03:54:03.724Z,104.40
2023-02-03T03:56:58.020Z,103.70
2023-02-03T03:59:28.806Z,102.43
2023-02-03T04:01:56.638Z,103.55
2023-02-03T04:04:25.974Z,103.55
2023-02-03T04:06:56.446Z,104.32
2023-02-03T04:09:23.802Z,103.10
2023-02-03T04:12:06.925Z,105.45
2023-02-03T04:14:39.092Z,100.18
2023-02-03T04:17:06.597Z,101.30
2023-02-03T04:19:33.588Z,109.25
2023-02-03T04:22:00.542Z,107.18
2023-02-03T04:24:27.838Z,109.03
2023-02-03T04:26:55.048Z,101.95
2023-02-03T04:29:22.094Z,108.82
2023-02-03T04:31:49.223Z,107.88
2023-02-03T04:34:16.491Z,116.20
2023-02-03T04:36:43.587Z,115.72
2023-02-03T04:39:10.630Z,119.15
2023-02-03T04:41:37.775Z,115.28
2023-02-03T04:44:04.927Z,118.00
2023-02-03T04:46:32.178Z,120.63
2023-02-03T04:49:00.815Z,122.13
2023-02-03T04:51:27.866Z,115.95
2023-02-03T04:53:54.911Z,107.60
2023-02-03T04:56:21.962Z,115.80
2023-02-03T04:58:49.004Z,116.93
2023-02-03T05:01:17.372Z,106.78
2023-02-03T05:03:45.657Z,104.65
2023-02-03T05:06:12.650Z,113.00
2023-02-03T05:08:39.748Z,121.63
2023-02-03T05:11:06.963Z,116.70
2023-02-03T05:13:34.004Z,116.80
2023-02-03T05:16:06.235Z,112.35
2023-02-03T05:18:33.261Z,116.05
2023-02-03T05:21:00.299Z,116.30
2023-02-03T05:23:27.399Z,112.45
2023-02-03T05:25:54.547Z,108.45
2023-02-03T05:28:21.650Z,112.97
2023-02-03T05:30:48.807Z,115.25
2023-02-03T05:33:16.285Z,115.85
2023-02-03T05:35:43.410Z,113.28
2023-02-03T05:38:10.453Z,110.20
2023-02-03T05:40:56.234Z,107.72
2023-02-03T05:45:50.242Z,106.88
2023-02-03T05:48:17.275Z,112.53
2023-02-03T05:50:44.318Z,111.57
2023-02-03T05:53:11.314Z,114.28
2023-02-03T05:55:38.728Z,119.70
2023-02-03T05:58:05.869Z,107.03
2023-02-03T06:00:33.275Z,108.88
2023-02-03T06:03:04.697Z,119.68
2023-02-03T06:05:33.813Z,117.38
2023-02-03T06:08:01.438Z,114.97
2023-02-03T06:10:29.148Z,114.72
2023-02-03T06:12:56.338Z,112.45
2023-02-03T06:15:23.515Z,117.63
2023-02-03T06:17:50.993Z,111.65
2023-02-03T06:20:20.559Z,112.05
2023-02-03T06:22:47.625Z,107.35
2023-02-03T06:25:14.689Z,113.72
2023-02-03T06:27:42.470Z,111.20
2023-02-03T06:30:11.546Z,128.68
2023-02-03T06:32:38.708Z,118.40
2023-02-03T06:35:05.948Z,113.60
2023-02-03T06:37:33.360Z,116.03
2023-02-03T06:40:00.450Z,118.50
2023-02-03T06:42:27.612Z,113.10
2023-02-03T06:44:55.314Z,105.55
2023-02-03T06:47:22.278Z,109.85
2023-02-03T06:49:49.579Z,114.20
2023-02-03T06:52:16.890Z,112.20
2023-02-03T06:54:43.962Z,117.88
2023-02-03T06:57:11.056Z,110.85
2023-02-03T06:59:38.106Z,109.22
2023-02-03T07:02:05.357Z,114.97
2023-02-03T07:04:32.407Z,115.82
2023-02-03T07:06:59.450Z,113.97
2023-02-03T07:09:26.600Z,111.72
2023-02-03T07:11:53.651Z,107.82
2023-02-03T07:14:20.773Z,107.88
2023-02-03T07:16:47.936Z,111.57
2023-02-03T07:19:14.987Z,109.45
2023-02-03T07:21:41.933Z,103.25
2023-02-03T07:24:08.980Z,111.40
2023-02-03T07:26:36.023Z,110.43
2023-02-03T07:29:03.223Z,111.93
2023-02-03T07:31:30.418Z,111.15
2023-02-03T07:33:57.737Z,108.20
2023-02-03T07:36:24.833Z,109.07
2023-02-03T07:38:51.877Z,113.90
2023-02-03T07:41:19.077Z,109.30
2023-02-03T07:43:46.372Z,102.50
2023-02-03T07:46:13.769Z,107.88
2023-02-03T07:48:40.824Z,108.63
2023-02-03T07:51:08.299Z,103.45
2023-02-03T07:53:35.532Z,104.57
2023-02-03T07:56:04.066Z,106.63
2023-02-03T07:58:32.339Z,97.97
2023-02-03T08:00:59.802Z,96.88
2023-02-03T08:03:26.845Z,102.78
2023-02-03T08:09:31.388Z,110.55
2023-02-03T08:11:58.379Z,104.60
2023-02-03T08:14:25.425Z,105.03
2023-02-03T08:16:52.517Z,106.40
2023-02-03T08:19:20.857Z,111.18
2023-02-03T08:21:47.940Z,112.95
2023-02-03T08:24:15.100Z,116.65
2023-02-03T08:26:42.091Z,115.32
2023-02-03T08:29:09.140Z,109.38
2023-02-03T08:31:37.935Z,115.90
2023-02-03T08:34:05.727Z,112.82
2023-02-03T08:36:32.789Z,114.28
2023-02-03T08:38:59.840Z,123.95
2023-02-03T08:41:26.832Z,117.32
2023-02-03T08:47:30.920Z,114.17
2023-02-03T08:49:57.965Z,114.65
2023-02-03T08:52:25.074Z,117.00
2023-02-03T08:54:52.153Z,118.68
2023-02-03T08:57:20.910Z,117.60
2023-02-03T08:59:47.995Z,108.90
2023-02-03T09:02:17.914Z,113.72
2023-02-03T09:04:46.148Z,110.43
2023-02-03T09:07:13.959Z,114.43
2023-02-03T09:09:41.119Z,113.00
2023-02-03T09:12:08.913Z,113.90
2023-02-03T09:14:36.243Z,114.72
2023-02-03T09:17:06.195Z,107.82
2023-02-03T09:19:35.453Z,103.15
2023-02-03T09:22:05.130Z,100.85
2023-02-03T09:24:32.497Z,94.38
2023-02-03T09:27:01.272Z,98.18
2023-02-03T09:29:28.322Z,96.45
2023-02-03T09:31:55.476Z,96.03
2023-02-03T09:38:02.931Z,86.53
2023-02-03T09:40:34.948Z,75.20
2023-02-03T09:43:23.445Z,81.07
2023-02-03T09:45:51.739Z,59.83
2023-02-03T09:48:25.299Z,61.55
2023-02-03T09:50:53.030Z,65.90
2023-02-03T09:53:48.236Z,72.72
2023-02-03T09:56:36.371Z,75.07
2023-02-03T09:59:06.817Z,67.60
2023-02-03T10:01:55.044Z,69.05
2023-02-03T10:04:50.967Z,65.00
2023-02-03T10:07:25.630Z,67.95
2023-02-03T10:09:58.783Z,71.05
2023-02-03T10:12:38.222Z,70.47
2023-02-03T10:15:24.053Z,63.53
2023-02-03T10:20:41.183Z,67.13
2023-02-03T10:23:18.227Z,63.38
2023-02-03T10:25:57.339Z,64.30
2023-02-03T10:28:29.753Z,64.00
2023-02-03T10:30:57.885Z,60.75
2023-02-03T10:33:32.681Z,59.17
2023-02-03T10:36:12.160Z,62.50
2023-02-03T10:38:53.744Z,61.60
2023-02-03T10:41:22.760Z,64.70
2023-02-03T10:43:55.491Z,58.33
2023-02-03T10:46:35.460Z,57.58
2023-02-03T10:49:03.029Z,60.10
2023-02-03T10:51:40.214Z,59.50
2023-02-03T10:54:32.182Z,58.00
2023-02-03T10:57:11.168Z,58.90
2023-02-03T10:59:42.828Z,62.95
2023-02-03T11:02:30.773Z,56.17
2023-02-03T11:05:21.262Z,56.42
2023-02-03T11:07:48.757Z,55.22
2023-02-03T11:10:38.083Z,56.40
2023-02-03T11:13:25.208Z,55.67
2023-02-03T11:15:58.426Z,53.13
2023-02-03T11:18:43.915Z,55.22
2023-02-03T11:21:17.826Z,63.17
2023-02-03T11:24:18.661Z,53.33
2023-02-03T11:27:06.885Z,54.00
2023-02-03T11:30:16.034Z,53.17
2023-02-03T11:32:45.181Z,52.15
2023-02-03T11:35:24.672Z,52.63
2023-02-03T11:37:54.637Z,59.88
2023-02-03T11:40:21.528Z,57.58
2023-02-03T11:42:51.288Z,63.83
2023-02-03T11:45:18.310Z,79.47
2023-02-03T11:47:59.718Z,62.70
2023-02-03T11:50:35.312Z,56.00
2023-02-03T11:53:08.145Z,56.15
2023-02-03T11:55:46.051Z,56.58
2023-02-03T11:58:32.046Z,54.60
2023-02-03T12:01:34.410Z,58.60
2023-02-03T12:04:10.361Z,54.33
2023-02-03T12:07:08.402Z,52.00
2023-02-03T12:09:55.760Z,53.78
2023-02-03T12:12:40.525Z,54.08
2023-02-03T12:15:10.649Z,53.72
2023-02-03T12:17:52.536Z,55.38
2023-02-03T12:20:46.829Z,54.47
2023-02-03T12:23:51.550Z,50.28
2023-02-03T12:26:26.487Z,50.35
2023-02-03T12:29:02.443Z,52.08
2023-02-03T12:32:17.254Z,52.83
2023-02-03T12:35:13.439Z,47.38
2023-02-03T12:38:03.517Z,54.30
2023-02-03T12:40:49.243Z,53.50
2023-02-03T12:43:37.831Z,54.42
2023-02-03T12:46:18.401Z,53.88
2023-02-03T12:48:56.989Z,54.47
2023-02-03T12:51:47.278Z,57.03
2023-02-03T12:54:35.627Z,59.85
2023-02-03T12:57:37.341Z,58.20
2023-02-03T13:00:04.641Z,58.60
2023-02-03T13:02:37.834Z,60.70
2023-02-03T13:05:22.025Z,57.65
2023-02-03T13:08:03.407Z,57.58
2023-02-03T13:10:45.303Z,55.10
2023-02-03T13:13:15.161Z,56.15
2023-02-03T13:15:48.508Z,57.30
2023-02-03T13:18:35.278Z,55.45
2023-02-03T13:21:05.385Z,56.45
2023-02-03T13:23:33.061Z,58.08
2023-02-03T13:26:22.701Z,57.90
2023-02-03T13:29:10.876Z,56.03
2023-02-03T13:32:22.405Z,57.75
2023-02-03T13:34:55.796Z,57.92
2023-02-03T13:37:31.499Z,56.35
2023-02-03T13:40:25.473Z,56.33
2023-02-03T13:42:55.747Z,57.63
2023-02-03T13:45:38.199Z,58.83
2023-02-03T13:48:11.252Z,57.58
2023-02-03T13:50:39.873Z,60.53
2023-02-03T13:53:19.623Z,59.78
2023-02-03T13:55:59.964Z,61.53
2023-02-03T13:58:40.493Z,58.05
2023-02-03T14:01:33.609Z,59.22
2023-02-03T14:04:06.983Z,60.78
2023-02-03T14:06:40.338Z,58.97
2023-02-03T14:09:36.261Z,58.33
2023-02-03T14:12:19.766Z,57.88
2023-02-03T14:14:58.248Z,59.22
2023-02-03T14:17:43.487Z,60.05
2023-02-03T14:20:26.058Z,62.97
2023-02-03T14:23:07.406Z,64.65
2023-02-03T14:25:48.802Z,65.68
2023-02-03T14:28:31.467Z,70.47
2023-02-03T14:31:19.462Z,67.22
2023-02-03T14:33:49.433Z,64.68
2023-02-03T14:36:33.822Z,64.22
2023-02-03T14:39:04.413Z,61.55
2023-02-03T14:41:46.758Z,67.72
2023-02-03T14:44:42.476Z,63.28
2023-02-03T14:48:04.465Z,68.28
2023-02-03T14:50:43.741Z,68.70
2023-02-03T14:53:20.981Z,70.13
2023-02-03T14:56:11.216Z,69.03
2023-02-03T14:58:53.350Z,65.88
2023-02-03T15:01:37.751Z,62.20
2023-02-03T15:04:24.632Z,68.10
2023-02-03T15:06:53.420Z,70.30
2023-02-03T15:09:33.119Z,70.22
2023-02-03T15:12:00.366Z,71.70
2023-02-03T15:14:31.543Z,65.25
2023-02-03T15:17:04.187Z,68.75
2023-02-03T15:19:36.355Z,69.43
2023-02-03T15:22:17.940Z,73.13
2023-02-03T15:24:45.241Z,66.18
2023-02-03T15:27:27.341Z,57.80
2023-02-03T15:29:54.590Z,76.05
2023-02-03T15:32:37.774Z,78.60
2023-02-03T15:35:10.292Z,84.72
2023-02-03T15:37:47.785Z,77.03
2023-02-03T15:40:23.637Z,75.40
2023-02-03T15:43:02.769Z,69.07
2023-02-03T15:45:46.044Z,73.22
2023-02-03T15:48:42.529Z,67.65
2023-02-03T15:51:09.677Z,75.45
2023-02-03T15:54:02.529Z,78.13
2023-02-03T15:56:55.392Z,74.57
2023-02-03T15:59:36.043Z,66.45
2023-02-03T16:02:15.917Z,64.72
2023-02-03T16:04:43.351Z,56.40
2023-02-03T16:07:23.713Z,63.03
2023-02-03T16:09:58.431Z,60.17
2023-02-03T16:12:27.024Z,63.53
2023-02-03T16:14:55.998Z,69.55
2023-02-03T16:17:29.303Z,65.13
2023-02-03T16:20:28.824Z,75.10
2023-02-03T16:23:04.733Z,73.95
2023-02-03T16:25:34.730Z,80.72
2023-02-03T16:28:32.435Z,78.85
2023-02-03T16:31:32.048Z,73.20
2023-02-03T16:34:21.018Z,75.93
2023-02-03T16:37:06.957Z,75.50
2023-02-03T16:42:40.627Z,76.32
2023-02-03T16:45:34.890Z,68.30
2023-02-03T16:48:21.640Z,68.82
2023-02-03T16:50:57.548Z,77.55
2023-02-03T16:53:28.770Z,79.93
2023-02-03T16:55:57.708Z,85.90
2023-02-03T16:58:25.059Z,82.95
2023-02-03T17:00:53.322Z,81.50
2023-02-03T17:03:23.045Z,82.10
2023-02-03T17:05:51.560Z,75.07
2023-02-03T17:08:21.695Z,76.60
2023-02-03T17:10:49.504Z,77.45
2023-02-03T17:13:18.295Z,80.80
2023-02-03T17:15:55.230Z,71.63
2023-02-03T17:18:22.234Z,78.72
2023-02-03T17:20:49.369Z,76.30
2023-02-03T17:23:17.038Z,83.57
2023-02-03T17:25:48.887Z,79.13
2023-02-03T17:28:16.527Z,89.75
2023-02-03T17:30:44.005Z,91.13
2023-02-03T17:33:13.911Z,76.68
2023-02-03T17:35:45.566Z,73.63
2023-02-03T17:38:15.014Z,84.93
2023-02-03T17:54:12.615Z,81.43
2023-02-03T17:56:39.975Z,87.15
2023-02-03T17:59:07.007Z,85.45
2023-02-03T18:01:34.262Z,85.88
2023-02-03T18:04:03.755Z,95.30
2023-02-03T18:06:33.305Z,94.90
2023-02-03T18:09:04.703Z,91.50
2023-02-03T18:11:34.007Z,86.43
2023-02-03T18:14:03.199Z,88.82
2023-02-03T18:16:33.654Z,89.40
2023-02-03T18:19:02.929Z,100.97
2023-02-03T18:21:32.419Z,94.45
2023-02-03T18:24:03.771Z,95.38
2023-02-03T18:26:34.565Z,93.32
2023-02-03T18:29:04.113Z,84.88
2023-02-03T18:31:31.930Z,91.15
2023-02-03T18:34:03.529Z,87.07
2023-02-03T18:36:30.922Z,93.88
2023-02-03T18:38:58.074Z,89.05
2023-02-03T18:41:26.407Z,95.18
2023-02-03T18:43:53.457Z,100.82
2023-02-03T18:46:27.086Z,104.15
2023-02-03T18:48:56.413Z,104.65
2023-02-03T18:51:24.391Z,95.93
2023-02-03T18:53:51.824Z,92.13
2023-02-03T18:56:22.072Z,96.93
2023-02-03T18:58:49.421Z,94.93
2023-02-03T19:01:23.251Z,93.53
2023-02-03T19:03:51.191Z,95.63
2023-02-03T19:06:18.996Z,96.22
2023-02-03T19:08:46.968Z,101.22
2023-02-03T19:11:14.881Z,99.50
2023-02-03T19:13:42.495Z,91.90
2023-02-03T19:16:13.354Z,89.75
2023-02-03T19:18:40.852Z,99.70
2023-02-03T19:21:07.996Z,93.90
2023-02-03T19:23:36.175Z,97.40
2023-02-03T19:26:03.370Z,93.70
2023-02-03T19:28:32.365Z,98.63
2023-02-03T19:31:08.920Z,99.18
2023-02-03T19:33:37.155Z,89.85
2023-02-03T19:36:05.741Z,94.80
2023-02-03T19:38:32.941Z,98.10
2023-02-03T19:41:01.841Z,98.55
2023-02-03T19:43:32.304Z,92.70
2023-02-03T19:45:59.885Z,95.00
2023-02-03T19:48:28.037Z,90.88
2023-02-03T19:50:55.084Z,87.10
2023-02-03T19:53:24.398Z,94.95
2023-02-03T19:55:51.894Z,90.03
2023-02-03T19:58:19.113Z,89.32
2023-02-03T20:00:47.424Z,80.38
2023-02-03T20:03:14.521Z,84.65
